createdAt,value
2022-09-27T00:01:14.533Z,1.60
2022-09-27T00:03:42.840Z,1.20
2022-09-27T00:06:14.566Z,1.70
2022-09-27T00:08:43.558Z,1.30
2022-09-27T00:11:21.564Z,1.50
2022-09-27T00:13:49.374Z,1.50
2022-09-27T00:16:17.298Z,1.60
2022-09-27T00:18:45.301Z,1.60
2022-09-27T00:21:14.530Z,1.83
2022-09-27T00:23:42.957Z,1.30
2022-09-27T00:26:13.296Z,2.03
2022-09-27T00:28:42.611Z,1.70
2022-09-27T00:31:21.752Z,2.07
2022-09-27T00:33:50.486Z,1.87
2022-09-27T00:36:19.431Z,1.83
2022-09-27T00:38:47.820Z,2.20
2022-09-27T00:41:18.803Z,1.87
2022-09-27T00:43:51.495Z,2.00
2022-09-27T00:46:28.024Z,1.80
2022-09-27T00:49:05.967Z,2.00
2022-09-27T00:51:37.415Z,1.93
2022-09-27T00:54:07.655Z,1.80
2022-09-27T00:56:36.993Z,1.80
2022-09-27T00:59:10.239Z,1.50
2022-09-27T01:01:38.368Z,1.80
2022-09-27T01:04:10.039Z,1.60
2022-09-27T01:06:38.597Z,2.00
2022-09-27T01:09:08.035Z,1.53
2022-09-27T01:11:45.360Z,1.90
2022-09-27T01:14:37.824Z,1.73
2022-09-27T01:17:18.939Z,1.80
2022-09-27T01:20:19.720Z,1.90
2022-09-27T01:23:02.027Z,1.67
2022-09-27T01:25:53.655Z,1.77
2022-09-27T01:28:26.493Z,1.50
2022-09-27T01:31:03.546Z,1.70
2022-09-27T01:33:44.084Z,1.83
2022-09-27T01:36:29.871Z,1.47
2022-09-27T01:39:11.988Z,1.50
2022-09-27T01:41:47.271Z,1.20
2022-09-27T01:44:22.293Z,1.50
2022-09-27T01:46:54.154Z,1.40
2022-09-27T01:49:29.221Z,1.37
2022-09-27T01:52:01.077Z,1.33
2022-09-27T01:54:37.073Z,1.50
2022-09-27T01:57:07.626Z,1.40
2022-09-27T01:59:43.171Z,1.40
2022-09-27T02:02:13.695Z,1.53
2022-09-27T02:04:43.668Z,1.30
2022-09-27T02:07:16.697Z,1.27
2022-09-27T02:09:49.763Z,1.20
2022-09-27T02:12:24.322Z,1.70
2022-09-27T02:14:56.659Z,1.30
2022-09-27T02:17:36.483Z,1.30
2022-09-27T02:20:13.452Z,1.33
2022-09-27T02:22:46.899Z,1.30
2022-09-27T02:25:21.369Z,1.30
2022-09-27T02:27:58.493Z,1.60
2022-09-27T02:30:26.480Z,1.20
2022-09-27T02:32:56.017Z,1.37
2022-09-27T02:35:29.552Z,1.30
2022-09-27T02:37:58.477Z,1.60
2022-09-27T02:40:32.736Z,1.60
2022-09-27T02:43:02.330Z,1.60
2022-09-27T02:45:38.681Z,1.60
2022-09-27T02:48:18.652Z,1.63
2022-09-27T02:51:02.762Z,1.90
2022-09-27T02:53:40.433Z,1.50
2022-09-27T02:56:14.086Z,1.70
2022-09-27T02:58:55.505Z,2.23
2022-09-27T03:01:30.909Z,2.00
2022-09-27T03:04:06.562Z,1.90
2022-09-27T03:06:36.726Z,1.90
2022-09-27T03:09:04.690Z,2.20
2022-09-27T03:11:33.479Z,1.97
2022-09-27T03:14:08.908Z,2.13
2022-09-27T03:16:37.376Z,1.90
2022-09-27T03:19:06.697Z,2.03
2022-09-27T03:21:35.223Z,2.23
2022-09-27T03:24:03.435Z,1.90
2022-09-27T03:26:31.315Z,2.40
2022-09-27T03:28:59.205Z,2.70
2022-09-27T03:31:27.151Z,2.53
2022-09-27T03:33:55.223Z,2.07
2022-09-27T03:36:24.519Z,2.20
2022-09-27T03:38:52.340Z,2.10
2022-09-27T03:41:20.295Z,1.50
2022-09-27T03:43:48.089Z,1.17
2022-09-27T03:46:16.263Z,1.20
2022-09-27T03:48:44.231Z,1.40
2022-09-27T03:51:12.735Z,0.90
2022-09-27T03:53:42.807Z,1.40
2022-09-27T03:56:10.745Z,1.30
2022-09-27T03:58:38.564Z,1.10
2022-09-27T04:01:06.488Z,1.00
2022-09-27T04:03:35.018Z,0.90
2022-09-27T04:06:03.031Z,1.10
2022-09-27T04:08:31.073Z,0.90
2022-09-27T04:11:00.370Z,0.70
2022-09-27T04:13:28.204Z,1.03
2022-09-27T04:15:56.247Z,1.20
2022-09-27T04:18:24.124Z,0.90
2022-09-27T04:20:52.045Z,1.10
2022-09-27T04:23:20.597Z,0.90
2022-09-27T04:25:48.774Z,0.70
2022-09-27T04:28:18.070Z,0.97
2022-09-27T04:30:46.702Z,0.80
2022-09-27T04:33:14.926Z,0.93
2022-09-27T04:36:01.014Z,0.70
2022-09-27T04:38:28.857Z,1.23
2022-09-27T04:40:57.314Z,0.80
2022-09-27T04:43:26.674Z,0.80
2022-09-27T04:45:54.577Z,0.70
2022-09-27T04:48:22.498Z,1.10
2022-09-27T04:51:00.536Z,0.93
2022-09-27T04:53:29.653Z,0.80
2022-09-27T04:55:57.806Z,0.83
2022-09-27T04:58:27.180Z,1.10
2022-09-27T05:00:55.627Z,1.10
2022-09-27T05:03:23.649Z,0.80
2022-09-27T05:05:51.543Z,0.87
2022-09-27T05:08:19.417Z,1.00
2022-09-27T05:10:47.349Z,0.63
2022-09-27T05:13:15.352Z,0.80
2022-09-27T05:15:44.653Z,1.00
2022-09-27T05:18:12.818Z,0.70
2022-09-27T05:20:40.691Z,0.70
2022-09-27T05:23:08.519Z,0.80
2022-09-27T05:25:36.715Z,0.70
2022-09-27T05:28:06.107Z,0.70
2022-09-27T05:30:34.334Z,0.90
2022-09-27T05:33:03.574Z,1.00
2022-09-27T05:35:31.722Z,0.70
2022-09-27T05:38:01.395Z,0.50
2022-09-27T05:40:41.244Z,0.70
2022-09-27T05:43:09.801Z,1.00
2022-09-27T05:45:38.045Z,0.90
2022-09-27T05:48:07.602Z,1.10
2022-09-27T05:50:35.474Z,0.90
2022-09-27T05:53:03.327Z,0.97
2022-09-27T05:55:31.270Z,1.00
2022-09-27T05:58:00.905Z,1.00
2022-09-27T06:00:29.550Z,0.80
2022-09-27T06:02:58.987Z,0.80
2022-09-27T06:05:31.218Z,0.80
2022-09-27T06:08:01.041Z,0.87
2022-09-27T06:10:30.814Z,0.87
2022-09-27T06:13:02.364Z,0.90
2022-09-27T06:15:31.394Z,1.20
2022-09-27T06:18:04.613Z,0.90
2022-09-27T06:20:34.732Z,0.90
2022-09-27T06:23:07.470Z,0.90
2022-09-27T06:25:35.650Z,0.90
2022-09-27T06:28:03.893Z,1.00
2022-09-27T06:30:32.393Z,1.00
2022-09-27T06:33:02.379Z,1.00
2022-09-27T06:35:31.449Z,0.90
2022-09-27T06:38:04.869Z,1.00
2022-09-27T06:40:32.815Z,0.80
2022-09-27T06:43:03.994Z,0.90
2022-09-27T06:45:32.423Z,1.10
2022-09-27T06:48:02.522Z,1.40
2022-09-27T06:50:30.631Z,1.10
2022-09-27T06:52:58.670Z,1.00
2022-09-27T06:55:27.942Z,0.80
2022-09-27T06:58:13.516Z,0.80
2022-09-27T07:00:42.233Z,1.00
2022-09-27T07:03:11.824Z,1.00
2022-09-27T07:05:40.654Z,1.07
2022-09-27T07:08:11.928Z,1.40
2022-09-27T07:10:42.140Z,0.97
2022-09-27T07:13:12.137Z,1.00
2022-09-27T07:15:42.910Z,1.10
2022-09-27T07:18:10.870Z,0.87
2022-09-27T07:20:38.915Z,0.90
2022-09-27T07:23:07.857Z,1.13
2022-09-27T07:25:36.306Z,0.70
2022-09-27T07:28:08.845Z,0.80
2022-09-27T07:30:38.644Z,0.80
2022-09-27T07:33:07.529Z,0.90
2022-09-27T07:35:36.937Z,0.70
2022-09-27T07:38:05.322Z,0.97
2022-09-27T07:40:33.488Z,0.97
2022-09-27T07:43:01.565Z,1.40
2022-09-27T07:45:31.126Z,0.60
2022-09-27T07:47:59.384Z,0.90
2022-09-27T07:50:28.869Z,1.20
2022-09-27T07:52:56.906Z,0.70
2022-09-27T07:55:25.246Z,0.50
2022-09-27T07:57:53.641Z,0.60
2022-09-27T08:00:21.809Z,0.70
2022-09-27T08:02:51.244Z,0.47
2022-09-27T08:05:19.146Z,0.63
2022-09-27T08:07:47.088Z,0.60
2022-09-27T08:10:15.466Z,0.80
2022-09-27T08:12:43.400Z,0.70
2022-09-27T08:15:12.252Z,0.50
2022-09-27T08:17:40.246Z,0.70
2022-09-27T08:20:10.403Z,0.67
2022-09-27T08:22:41.607Z,0.60
2022-09-27T08:25:10.795Z,0.60
2022-09-27T08:27:38.745Z,0.67
2022-09-27T08:30:07.580Z,0.70
2022-09-27T08:32:37.058Z,0.70
2022-09-27T08:35:07.470Z,0.70
2022-09-27T08:37:36.796Z,0.77
2022-09-27T08:40:05.634Z,0.60
2022-09-27T08:42:45.044Z,0.73
2022-09-27T08:45:18.655Z,0.70
2022-09-27T08:47:50.447Z,0.83
2022-09-27T08:50:27.241Z,0.93
2022-09-27T08:53:00.942Z,0.60
2022-09-27T08:55:36.930Z,1.20
2022-09-27T08:58:13.293Z,0.80
2022-09-27T09:00:43.409Z,0.73
2022-09-27T09:03:19.422Z,0.60
2022-09-27T09:06:11.642Z,0.70
2022-09-27T09:08:53.711Z,0.67
2022-09-27T09:11:51.231Z,0.50
2022-09-27T09:15:00.543Z,0.70
2022-09-27T09:17:43.793Z,0.93
2022-09-27T09:20:23.216Z,0.50
2022-09-27T09:23:10.867Z,0.73
2022-09-27T09:25:50.697Z,1.20
2022-09-27T09:28:34.386Z,0.50
2022-09-27T09:31:11.348Z,0.50
2022-09-27T09:33:42.590Z,0.43
2022-09-27T09:36:19.682Z,0.77
2022-09-27T09:38:51.781Z,0.70
2022-09-27T09:41:24.676Z,0.90
2022-09-27T09:43:58.024Z,0.63
2022-09-27T09:46:34.515Z,0.60
2022-09-27T09:49:07.493Z,0.63
2022-09-27T09:51:42.374Z,1.00
2022-09-27T09:54:21.248Z,0.73
2022-09-27T09:56:57.329Z,0.50
2022-09-27T09:59:31.440Z,0.60
2022-09-27T10:02:11.780Z,0.70
2022-09-27T10:04:39.900Z,1.10
2022-09-27T10:07:09.700Z,0.47
2022-09-27T10:09:37.727Z,0.63
2022-09-27T10:12:07.148Z,0.90
2022-09-27T10:14:35.226Z,0.63
2022-09-27T10:17:07.565Z,0.60
2022-09-27T10:19:39.471Z,0.60
2022-09-27T10:22:16.775Z,1.10
2022-09-27T10:24:56.643Z,0.60
2022-09-27T10:27:26.846Z,0.60
2022-09-27T10:29:59.442Z,0.53
2022-09-27T10:32:31.366Z,0.60
2022-09-27T10:35:23.755Z,0.40
2022-09-27T10:37:52.643Z,0.40
2022-09-27T10:40:29.021Z,0.60
2022-09-27T10:42:58.391Z,0.60
2022-09-27T10:45:30.156Z,0.40
2022-09-27T10:47:59.162Z,0.40
2022-09-27T10:53:21.447Z,0.60
2022-09-27T10:55:51.819Z,0.50
2022-09-27T10:58:27.778Z,0.63
2022-09-27T11:00:58.725Z,0.40
2022-09-27T11:03:29.015Z,0.50
2022-09-27T11:05:59.412Z,0.50
2022-09-27T11:08:32.685Z,0.40
2022-09-27T11:11:17.437Z,0.97
2022-09-27T11:14:00.743Z,0.77
2022-09-27T11:16:48.123Z,0.70
2022-09-27T11:19:31.948Z,0.60
2022-09-27T11:22:10.756Z,1.10
2022-09-27T11:24:54.063Z,0.80
2022-09-27T11:27:32.263Z,0.60
2022-09-27T11:30:09.722Z,0.77
2022-09-27T11:33:05.932Z,0.77
2022-09-27T11:35:47.159Z,0.90
2022-09-27T11:38:47.928Z,0.70
2022-09-27T11:41:30.013Z,0.70
2022-09-27T11:44:19.763Z,0.70
2022-09-27T11:46:59.234Z,1.00
2022-09-27T11:49:43.844Z,0.80
2022-09-27T11:52:28.457Z,0.80
2022-09-27T11:55:14.311Z,0.70
2022-09-27T11:57:46.598Z,0.57
2022-09-27T12:00:23.968Z,0.50
2022-09-27T12:03:33.710Z,0.80
2022-09-27T12:06:11.859Z,0.93
2022-09-27T12:08:58.468Z,0.70
2022-09-27T12:11:30.398Z,0.70
2022-09-27T12:14:02.823Z,0.53
2022-09-27T12:16:32.452Z,0.70
2022-09-27T12:19:04.178Z,0.77
2022-09-27T12:21:34.501Z,0.80
2022-09-27T12:24:04.493Z,0.77
2022-09-27T12:26:38.732Z,0.63
2022-09-27T12:29:14.000Z,0.90
2022-09-27T12:31:45.658Z,0.87
2022-09-27T12:34:20.854Z,0.70
2022-09-27T12:36:54.305Z,0.77
2022-09-27T12:39:26.189Z,0.70
2022-09-27T12:42:02.313Z,0.60
2022-09-27T12:44:38.706Z,0.80
2022-09-27T12:47:14.658Z,0.80
2022-09-27T12:50:01.174Z,0.77
2022-09-27T12:52:34.302Z,0.63
2022-09-27T12:55:26.952Z,0.87
2022-09-27T12:58:12.742Z,0.83
2022-09-27T13:00:46.910Z,0.90
2022-09-27T13:03:32.549Z,0.80
2022-09-27T13:06:31.960Z,0.60
2022-09-27T13:09:21.489Z,0.60
2022-09-27T13:12:00.764Z,0.90
2022-09-27T13:14:34.372Z,1.13
2022-09-27T13:17:02.645Z,0.70
2022-09-27T13:19:45.561Z,0.80
2022-09-27T13:22:46.216Z,0.90
2022-09-27T13:25:55.595Z,0.83
2022-09-27T13:28:36.072Z,0.90
2022-09-27T13:31:05.498Z,0.80
2022-09-27T13:33:41.555Z,0.70
2022-09-27T13:36:21.581Z,0.70
2022-09-27T13:39:05.976Z,0.80
2022-09-27T13:42:01.303Z,0.80
2022-09-27T13:44:41.694Z,0.90
2022-09-27T13:47:24.241Z,0.90
2022-09-27T13:49:55.050Z,1.23
2022-09-27T13:52:28.878Z,1.10
2022-09-27T13:54:59.090Z,1.00
2022-09-27T13:57:50.800Z,1.20
2022-09-27T14:00:22.475Z,0.90
2022-09-27T14:02:59.829Z,0.80
2022-09-27T14:05:35.329Z,0.90
2022-09-27T14:08:05.583Z,0.90
2022-09-27T14:10:34.477Z,1.10
2022-09-27T14:13:07.149Z,0.97
2022-09-27T14:15:35.326Z,0.97
2022-09-27T14:18:03.336Z,0.77
2022-09-27T14:20:37.115Z,0.93
2022-09-27T14:23:05.692Z,0.77
2022-09-27T14:25:33.826Z,0.70
2022-09-27T14:28:03.109Z,0.80
2022-09-27T14:30:31.467Z,0.80
2022-09-27T14:33:02.322Z,0.70
2022-09-27T14:35:55.710Z,0.73
2022-09-27T14:38:38.239Z,0.60
2022-09-27T14:41:08.913Z,0.53
2022-09-27T14:43:44.755Z,0.80
2022-09-27T14:46:28.220Z,0.63
2022-09-27T14:48:56.839Z,0.70
2022-09-27T14:51:28.946Z,0.90
2022-09-27T14:54:00.641Z,0.80
2022-09-27T14:56:32.212Z,0.60
2022-09-27T14:59:06.532Z,0.70
2022-09-27T15:01:35.069Z,0.93
2022-09-27T15:04:07.438Z,0.73
2022-09-27T15:06:37.760Z,0.50
2022-09-27T15:09:07.172Z,0.70
2022-09-27T15:11:35.559Z,0.80
2022-09-27T15:14:06.233Z,0.70
2022-09-27T15:16:34.816Z,0.90
2022-09-27T15:19:04.756Z,0.80
2022-09-27T15:21:34.568Z,0.70
2022-09-27T15:24:03.611Z,0.70
2022-09-27T15:26:39.010Z,0.90
2022-09-27T15:29:20.207Z,1.23
2022-09-27T15:32:00.556Z,0.90
2022-09-27T15:34:29.951Z,1.23
2022-09-27T15:37:00.697Z,0.80
2022-09-27T15:39:32.428Z,1.20
2022-09-27T15:42:07.252Z,0.70
2022-09-27T15:44:46.001Z,0.70
2022-09-27T15:47:40.175Z,0.87
2022-09-27T15:50:33.695Z,0.80
2022-09-27T15:53:02.879Z,0.70
2022-09-27T15:55:33.380Z,0.73
2022-09-27T15:58:03.167Z,0.70
2022-09-27T16:00:33.002Z,1.00
2022-09-27T16:03:00.766Z,0.90
2022-09-27T16:05:30.329Z,1.30
2022-09-27T16:07:59.432Z,0.90
2022-09-27T16:10:35.487Z,1.23
2022-09-27T16:13:03.374Z,1.87
2022-09-27T16:15:33.081Z,1.60
2022-09-27T16:18:01.118Z,1.80
2022-09-27T16:20:29.405Z,1.40
2022-09-27T16:22:58.669Z,1.80
2022-09-27T16:25:27.114Z,1.47
2022-09-27T16:27:55.109Z,1.20
2022-09-27T16:30:22.977Z,1.20
2022-09-27T16:32:52.279Z,1.70
2022-09-27T16:35:22.034Z,1.40
2022-09-27T16:37:50.002Z,1.40
2022-09-27T16:40:19.059Z,1.53
2022-09-27T16:42:49.677Z,1.50
2022-09-27T16:45:19.709Z,1.60
2022-09-27T16:47:48.466Z,2.23
2022-09-27T16:50:35.210Z,2.10
2022-09-27T16:53:05.162Z,2.10
2022-09-27T16:55:32.979Z,2.03
2022-09-27T16:58:01.135Z,2.13
2022-09-27T17:00:29.374Z,1.87
2022-09-27T17:02:57.472Z,1.73
2022-09-27T17:05:27.413Z,1.97
2022-09-27T17:07:55.987Z,1.87
2022-09-27T17:10:24.387Z,1.70
2022-09-27T17:12:52.501Z,1.97
2022-09-27T17:15:20.477Z,2.10
2022-09-27T17:17:50.261Z,1.90
2022-09-27T17:20:18.840Z,2.03
2022-09-27T17:22:48.013Z,2.10
2022-09-27T17:25:16.055Z,1.70
2022-09-27T17:27:44.001Z,2.17
2022-09-27T17:30:12.639Z,2.40
2022-09-27T17:32:40.520Z,2.10
2022-09-27T17:35:09.341Z,2.00
2022-09-27T17:37:37.388Z,2.73
2022-09-27T17:40:07.722Z,2.27
2022-09-27T17:42:37.061Z,2.40
2022-09-27T17:45:05.423Z,2.43
2022-09-27T17:47:50.663Z,2.00
2022-09-27T17:50:28.773Z,2.50
2022-09-27T17:52:58.809Z,2.80
2022-09-27T17:55:28.224Z,2.70
2022-09-27T17:57:56.270Z,2.50
2022-09-27T18:00:24.155Z,2.70
2022-09-27T18:02:52.821Z,2.60
2022-09-27T18:05:21.785Z,2.50
2022-09-27T18:07:50.074Z,2.43
2022-09-27T18:10:18.912Z,2.80
2022-09-27T18:12:48.198Z,2.50
2022-09-27T18:15:23.097Z,2.83
2022-09-27T18:17:57.205Z,2.57
2022-09-27T18:20:25.814Z,2.80
2022-09-27T18:22:53.997Z,2.90
2022-09-27T18:25:21.993Z,2.80
2022-09-27T18:27:52.156Z,3.17
2022-09-27T18:30:20.103Z,3.07
2022-09-27T18:32:50.464Z,3.07
2022-09-27T18:35:19.955Z,3.73
2022-09-27T18:37:48.076Z,3.20
2022-09-27T18:40:24.202Z,3.50
2022-09-27T18:43:06.069Z,2.63
2022-09-27T18:45:36.953Z,3.47
2022-09-27T18:48:06.003Z,2.77
2022-09-27T18:50:37.862Z,3.17
2022-09-27T18:53:05.632Z,3.20
2022-09-27T18:55:36.997Z,2.33
2022-09-27T18:58:06.183Z,2.20
2022-09-27T19:00:34.063Z,2.40
2022-09-27T19:03:02.029Z,2.33
2022-09-27T19:05:29.815Z,2.20
2022-09-27T19:07:57.671Z,2.43
2022-09-27T19:10:25.411Z,2.30
2022-09-27T19:12:56.687Z,2.93
2022-09-27T19:15:26.631Z,3.43
2022-09-27T19:17:54.849Z,4.50
2022-09-27T19:20:22.748Z,2.53
2022-09-27T19:22:50.575Z,2.13
2022-09-27T19:25:18.433Z,2.40
2022-09-27T19:27:46.267Z,2.17
2022-09-27T19:30:14.884Z,1.87
2022-09-27T19:32:44.139Z,2.00
2022-09-27T19:35:12.492Z,1.80
2022-09-27T19:37:40.275Z,2.00
2022-09-27T19:40:08.782Z,1.60
2022-09-27T19:42:36.608Z,1.87
2022-09-27T19:45:08.053Z,1.90
2022-09-27T19:47:39.175Z,2.00
2022-09-27T19:50:09.563Z,1.87
2022-09-27T19:52:38.192Z,2.20
2022-09-27T19:55:07.139Z,1.80
2022-09-27T19:57:34.964Z,2.30
2022-09-27T20:00:03.249Z,2.10
2022-09-27T20:02:31.345Z,2.00
2022-09-27T20:04:59.598Z,2.20
2022-09-27T20:07:28.869Z,2.33
2022-09-27T20:09:56.637Z,2.37
2022-09-27T20:12:24.601Z,2.30
2022-09-27T20:14:52.449Z,2.07
2022-09-27T20:17:20.299Z,2.87
2022-09-27T20:19:48.141Z,2.17
2022-09-27T20:22:16.153Z,1.90
2022-09-27T20:24:45.392Z,2.50
2022-09-27T20:27:13.614Z,2.00
2022-09-27T20:29:41.509Z,2.00
2022-09-27T20:32:26.678Z,1.97
2022-09-27T20:34:54.848Z,2.03
2022-09-27T20:37:22.999Z,2.37
2022-09-27T20:39:53.731Z,1.87
2022-09-27T20:42:21.733Z,1.80
2022-09-27T20:44:53.965Z,2.10
2022-09-27T20:47:22.917Z,1.80
2022-09-27T20:49:50.687Z,1.97
2022-09-27T20:52:19.536Z,1.70
2022-09-27T20:54:47.416Z,2.20
2022-09-27T20:57:16.832Z,1.80
2022-09-27T20:59:44.725Z,2.37
2022-09-27T21:02:12.669Z,2.00
2022-09-27T21:04:40.918Z,2.10
2022-09-27T21:07:08.869Z,2.10
2022-09-27T21:09:38.639Z,1.77
2022-09-27T21:12:06.589Z,2.10
2022-09-27T21:14:35.755Z,2.03
2022-09-27T21:17:03.538Z,2.60
2022-09-27T21:19:31.346Z,2.63
2022-09-27T21:21:59.226Z,2.40
2022-09-27T21:24:27.017Z,2.30
2022-09-27T21:26:55.947Z,2.40
2022-09-27T21:29:23.848Z,2.30
2022-09-27T21:31:53.057Z,2.50
2022-09-27T21:34:20.893Z,2.63
2022-09-27T21:36:48.792Z,2.40
2022-09-27T21:39:16.842Z,2.00
2022-09-27T21:41:45.224Z,2.50
2022-09-27T21:44:13.270Z,2.20
2022-09-27T21:46:43.574Z,2.07
2022-09-27T21:49:12.941Z,2.13
2022-09-27T21:51:42.175Z,2.20
2022-09-27T21:54:13.137Z,2.23
2022-09-27T21:56:41.520Z,2.33
2022-09-27T21:59:12.675Z,2.40
2022-09-27T22:01:42.953Z,2.10
2022-09-27T22:04:12.656Z,2.10
2022-09-27T22:06:40.957Z,2.60
2022-09-27T22:09:12.570Z,2.20
2022-09-27T22:11:56.711Z,2.40
2022-09-27T22:14:24.515Z,2.30
2022-09-27T22:16:52.333Z,2.30
2022-09-27T22:19:21.630Z,2.33
2022-09-27T22:21:49.446Z,2.57
2022-09-27T22:24:18.504Z,2.30
2022-09-27T22:26:48.690Z,2.57
2022-09-27T22:29:16.883Z,2.60
2022-09-27T22:31:44.955Z,2.60
2022-09-27T22:34:18.300Z,2.93
2022-09-27T22:36:47.704Z,2.40
2022-09-27T22:39:15.682Z,2.60
2022-09-27T22:41:43.515Z,2.23
2022-09-27T22:44:11.362Z,2.80
2022-09-27T22:46:39.202Z,2.00
2022-09-27T22:49:07.137Z,2.50
2022-09-27T22:51:35.044Z,2.60
2022-09-27T22:54:04.330Z,2.40
2022-09-27T22:56:32.134Z,2.57
2022-09-27T22:58:59.897Z,2.27
2022-09-27T23:01:27.577Z,2.13
2022-09-27T23:03:55.886Z,2.40
2022-09-27T23:06:24.230Z,2.60
2022-09-27T23:08:53.518Z,2.20
2022-09-27T23:11:23.706Z,2.20
2022-09-27T23:13:52.318Z,2.47
2022-09-27T23:16:24.246Z,2.90
2022-09-27T23:18:53.871Z,2.50
2022-09-27T23:21:22.785Z,2.10
2022-09-27T23:23:52.794Z,2.33
2022-09-27T23:26:24.330Z,2.40
2022-09-27T23:28:53.533Z,2.47
2022-09-27T23:31:23.647Z,2.27
2022-09-27T23:33:52.595Z,2.33
2022-09-27T23:36:23.394Z,2.00
2022-09-27T23:38:51.137Z,2.00
2022-09-27T23:41:19.605Z,2.13
2022-09-27T23:43:49.769Z,1.90
2022-09-27T23:46:19.089Z,2.10
2022-09-27T23:48:46.881Z,2.30
2022-09-27T23:51:14.814Z,2.80
2022-09-27T23:53:42.845Z,2.20
2022-09-27T23:56:14.218Z,2.07
2022-09-27T23:58:44.162Z,2.53
